createdAt,value
2022-08-07T00:00:59.515Z,100430.13
2022-08-07T00:04:03.519Z,100427.34
2022-08-07T00:07:09.587Z,100406.16
2022-08-07T00:10:27.186Z,100429.38
2022-08-07T00:13:32.919Z,100430.91
2022-08-07T00:16:35.966Z,100434.91
2022-08-07T00:20:01.461Z,100407.72
2022-08-07T00:23:00.957Z,100428.47
2022-08-07T00:26:18.588Z,100439.25
2022-08-07T00:29:31.415Z,100432.03
2022-08-07T00:32:35.042Z,100415.22
2022-08-07T00:35:38.346Z,100424.34
2022-08-07T00:38:40.874Z,100410.78
2022-08-07T00:41:53.433Z,100429.16
2022-08-07T00:45:07.061Z,100404.38
2022-08-07T00:48:11.271Z,100411.59
2022-08-07T00:51:14.368Z,100412.78
2022-08-07T00:54:19.645Z,100403.66
2022-08-07T00:57:25.159Z,100421.56
2022-08-07T01:00:29.004Z,100421.19
2022-08-07T01:03:55.450Z,100428.38
2022-08-07T01:06:57.717Z,100422.75
2022-08-07T01:10:07.182Z,100417.13
2022-08-07T01:13:16.469Z,100399.56
2022-08-07T01:16:30.062Z,100421.97
2022-08-07T01:19:34.599Z,100421.91
2022-08-07T01:22:54.338Z,100412.78
2022-08-07T01:26:08.446Z,100423.56
2022-08-07T01:29:17.454Z,100423.97
2022-08-07T01:32:22.422Z,100414.41
2022-08-07T01:35:26.652Z,100398.84
2022-08-07T01:38:49.408Z,100402.00
2022-08-07T01:42:07.420Z,100426.00
2022-08-07T01:45:18.459Z,100409.13
2022-08-07T01:48:30.378Z,100408.44
2022-08-07T01:52:03.459Z,100415.59
2022-08-07T01:55:00.227Z,100414.88
2022-08-07T01:58:29.233Z,100406.09
2022-08-07T02:02:00.035Z,100406.87
2022-08-07T02:05:04.986Z,100405.28
2022-08-07T02:08:16.156Z,100432.47
2022-08-07T02:11:30.997Z,100424.47
2022-08-07T02:14:53.793Z,100424.47
2022-08-07T02:18:02.805Z,100428.47
2022-08-07T02:21:08.493Z,100431.25
2022-08-07T02:24:19.739Z,100432.47
2022-08-07T02:27:23.691Z,100419.00
2022-08-07T02:30:27.677Z,100438.53
2022-08-07T02:33:42.053Z,100430.94
2022-08-07T02:36:59.214Z,100442.19
2022-08-07T02:40:29.845Z,100448.59
2022-08-07T02:43:30.223Z,100450.63
2022-08-07T02:46:34.264Z,100434.66
2022-08-07T02:49:57.585Z,100450.63
2022-08-07T02:53:07.032Z,100449.41
2022-08-07T02:56:21.772Z,100450.25
2022-08-07T02:59:27.410Z,100445.47
2022-08-07T03:02:31.990Z,100435.94
2022-08-07T03:05:37.088Z,100435.53
2022-08-07T03:08:40.951Z,100450.72
2022-08-07T03:11:51.734Z,100445.56
2022-08-07T03:15:07.902Z,100454.41
2022-08-07T03:18:20.017Z,100458.44
2022-08-07T03:21:24.495Z,100447.19
2022-08-07T03:24:28.759Z,100454.06
2022-08-07T03:27:58.719Z,100454.41
2022-08-07T03:31:16.991Z,100447.28
2022-08-07T03:34:22.570Z,100461.25
2022-08-07T03:37:28.020Z,100449.31
2022-08-07T03:40:36.169Z,100452.12
2022-08-07T03:43:39.842Z,100462.88
2022-08-07T03:47:13.287Z,100464.06
2022-08-07T03:50:22.883Z,100463.31
2022-08-07T03:53:50.167Z,100449.38
2022-08-07T03:57:03.524Z,100449.00
2022-08-07T04:00:07.980Z,100472.19
2022-08-07T04:03:18.282Z,100487.41
2022-08-07T04:06:37.906Z,100465.50
2022-08-07T04:09:50.129Z,100479.50
2022-08-07T04:12:54.916Z,100461.97
2022-08-07T04:15:58.411Z,100494.78
2022-08-07T04:19:04.223Z,100474.81
2022-08-07T04:22:18.951Z,100503.56
2022-08-07T04:25:23.525Z,100488.34
2022-08-07T04:28:26.863Z,100487.47
2022-08-07T04:31:38.982Z,100508.63
2022-08-07T04:34:55.597Z,100507.78
2022-08-07T04:38:03.384Z,100500.25
2022-08-07T04:41:10.789Z,100522.66
2022-08-07T04:44:22.755Z,100503.38
2022-08-07T04:48:01.133Z,100504.19
2022-08-07T04:51:04.021Z,100527.34
2022-08-07T04:54:30.158Z,100512.91
2022-08-07T04:58:34.982Z,100525.72
2022-08-07T05:01:46.974Z,100531.34
2022-08-07T05:05:11.906Z,100527.31
2022-08-07T05:08:45.855Z,100529.72
2022-08-07T05:12:07.496Z,100535.34
2022-08-07T05:15:23.530Z,100544.31
2022-08-07T05:18:29.998Z,100521.94
2022-08-07T05:21:59.797Z,100547.94
2022-08-07T05:25:01.256Z,100545.94
2022-08-07T05:28:20.352Z,100551.53
2022-08-07T05:31:35.129Z,100535.53
2022-08-07T05:34:41.989Z,100553.16
2022-08-07T05:37:46.245Z,100556.34
2022-08-07T05:41:14.345Z,100554.31
2022-08-07T05:44:29.468Z,100549.91
2022-08-07T05:47:38.217Z,100560.31
2022-08-07T05:50:59.445Z,100564.31
2022-08-07T05:54:12.984Z,100553.56
2022-08-07T05:57:30.104Z,100552.72
2022-08-07T06:00:38.534Z,100567.81
2022-08-07T06:03:56.503Z,100547.47
2022-08-07T06:07:05.930Z,100550.16
2022-08-07T06:10:15.149Z,100557.72
2022-08-07T06:13:19.850Z,100556.81
2022-08-07T06:16:50.597Z,100558.34
2022-08-07T06:20:03.725Z,100563.09
2022-08-07T06:23:45.813Z,100560.59
2022-08-07T06:26:31.797Z,100566.94
2022-08-07T06:29:38.754Z,100582.16
2022-08-07T06:32:41.955Z,100570.97
2022-08-07T06:36:06.807Z,100586.97
2022-08-07T06:40:17.187Z,100588.22
2022-08-07T06:42:37.586Z,100591.38
2022-08-07T06:45:44.281Z,100569.31
2022-08-07T06:48:47.745Z,100596.44
2022-08-07T06:51:59.226Z,100582.38
2022-08-07T06:55:33.208Z,100608.38
2022-08-07T07:00:14.772Z,100605.41
2022-08-07T07:02:49.253Z,100609.72
2022-08-07T07:06:05.048Z,100611.22
2022-08-07T07:09:23.078Z,100595.06
2022-08-07T07:12:53.557Z,100608.47
2022-08-07T07:16:03.167Z,100589.25
2022-08-07T07:19:56.262Z,100590.00
2022-08-07T07:22:36.194Z,100602.03
2022-08-07T07:26:31.225Z,100595.72
2022-08-07T07:29:39.391Z,100585.44
2022-08-07T07:32:40.403Z,100611.09
2022-08-07T07:35:54.705Z,100595.19
2022-08-07T07:39:10.331Z,100596.81
2022-08-07T07:42:19.719Z,100594.81
2022-08-07T07:46:37.128Z,100592.13
2022-08-07T07:48:59.931Z,100578.53
2022-08-07T07:52:13.063Z,100580.41
2022-08-07T07:55:18.635Z,100603.88
2022-08-07T07:58:23.052Z,100597.78
2022-08-07T08:02:03.731Z,100607.28
2022-08-07T08:04:57.523Z,100590.78
2022-08-07T08:08:01.950Z,100605.84
2022-08-07T08:11:08.428Z,100604.06
2022-08-07T08:14:11.553Z,100609.03
2022-08-07T08:17:58.243Z,100580.22
2022-08-07T08:20:39.438Z,100588.72
2022-08-07T08:24:05.176Z,100599.56
2022-08-07T08:27:09.750Z,100599.09
2022-08-07T08:30:17.402Z,100582.22
2022-08-07T08:33:24.981Z,100596.56
2022-08-07T08:36:34.117Z,100599.59
2022-08-07T08:39:39.645Z,100579.59
2022-08-07T08:43:15.966Z,100605.78
2022-08-07T08:46:28.852Z,100607.19
2022-08-07T08:50:05.068Z,100617.38
2022-08-07T08:53:29.421Z,100609.69
2022-08-07T08:56:47.100Z,100612.56
2022-08-07T09:00:13.962Z,100612.75
2022-08-07T09:03:47.929Z,100612.31
2022-08-07T09:07:14.418Z,100612.12
2022-08-07T09:10:54.597Z,100616.87
2022-08-07T09:14:32.049Z,100616.56
2022-08-07T09:17:59.385Z,100614.47
2022-08-07T09:22:10.084Z,100603.44
2022-08-07T09:25:24.319Z,100614.00
2022-08-07T09:30:05.754Z,100596.84
2022-08-07T09:32:21.667Z,100600.47
2022-08-07T09:36:01.205Z,100603.78
2022-08-07T09:39:27.495Z,100586.72
2022-08-07T09:42:39.641Z,100606.00
2022-08-07T09:47:42.521Z,100601.81
2022-08-07T09:50:00.888Z,100596.34
2022-08-07T09:53:10.040Z,100590.09
2022-08-07T09:56:55.311Z,100588.81
2022-08-07T10:00:08.819Z,100575.34
2022-08-07T10:04:07.042Z,100587.94
2022-08-07T10:07:25.775Z,100573.06
2022-08-07T10:12:00.268Z,100562.00
2022-08-07T10:15:01.886Z,100570.69
2022-08-07T10:18:20.154Z,100568.63
2022-08-07T10:22:14.731Z,100567.09
2022-08-07T10:25:13.693Z,100562.37
2022-08-07T10:28:50.220Z,100559.59
2022-08-07T10:31:57.504Z,100555.63
2022-08-07T10:35:09.125Z,100562.56
2022-08-07T10:38:42.345Z,100556.03
2022-08-07T10:42:20.922Z,100548.50
2022-08-07T10:45:57.170Z,100540.59
2022-08-07T10:49:45.284Z,100519.03
2022-08-07T10:52:55.431Z,100533.94
2022-08-07T10:56:05.072Z,100529.84
2022-08-07T10:59:37.338Z,100525.37
2022-08-07T11:03:02.289Z,100525.25
2022-08-07T11:06:21.922Z,100515.44
2022-08-07T11:10:07.276Z,100510.59
2022-08-07T11:14:42.221Z,100512.66
2022-08-07T11:17:23.141Z,100492.94
2022-08-07T11:21:20.669Z,100509.28
2022-08-07T11:24:33.596Z,100503.91
2022-08-07T11:28:16.744Z,100503.84
2022-08-07T11:31:37.188Z,100501.28
2022-08-07T11:34:47.800Z,100497.03
2022-08-07T11:38:12.511Z,100500.06
2022-08-07T11:41:28.288Z,100495.34
2022-08-07T11:45:13.291Z,100476.06
2022-08-07T11:48:37.554Z,100493.75
2022-08-07T11:52:10.568Z,100495.94
2022-08-07T11:56:25.050Z,100491.41
2022-08-07T12:00:12.045Z,100491.28
2022-08-07T12:03:41.858Z,100478.91
2022-08-07T12:06:51.680Z,100442.00
2022-08-07T12:10:12.713Z,100474.25
2022-08-07T12:13:43.426Z,100456.06
2022-08-07T12:17:04.320Z,100467.59
2022-08-07T12:20:30.893Z,100456.66
2022-08-07T12:24:07.615Z,100463.94
2022-08-07T12:27:28.147Z,100467.94
2022-08-07T12:30:46.606Z,100449.47
2022-08-07T12:33:56.128Z,100452.91
2022-08-07T12:37:08.629Z,100448.66
2022-08-07T12:40:47.406Z,100446.38
2022-08-07T12:44:02.222Z,100437.81
2022-08-07T12:47:37.749Z,100428.91
2022-08-07T12:51:17.126Z,100445.50
2022-08-07T12:54:41.617Z,100423.69
2022-08-07T12:58:01.349Z,100431.88
2022-08-07T13:01:18.290Z,100423.63
2022-08-07T13:05:01.961Z,100415.69
2022-08-07T13:08:31.757Z,100418.69
2022-08-07T13:12:03.518Z,100420.41
2022-08-07T13:15:32.570Z,100433.72
2022-08-07T13:18:48.968Z,100425.12
2022-08-07T13:22:04.136Z,100421.41
2022-08-07T13:25:30.001Z,100420.81
2022-08-07T13:29:06.644Z,100416.19
2022-08-07T13:32:32.404Z,100419.16
2022-08-07T13:36:00.584Z,100416.78
2022-08-07T13:39:12.797Z,100413.75
2022-08-07T13:42:35.196Z,100394.81
2022-08-07T13:46:16.406Z,100399.66
2022-08-07T13:50:33.009Z,100399.22
2022-08-07T13:52:43.004Z,100397.34
2022-08-07T13:55:54.902Z,100385.25
2022-08-07T13:59:01.343Z,100386.66
2022-08-07T14:02:12.897Z,100386.09
2022-08-07T14:05:23.159Z,100376.91
2022-08-07T14:08:27.447Z,100350.69
2022-08-07T14:11:53.608Z,100349.56
2022-08-07T14:15:04.822Z,100348.28
2022-08-07T14:18:27.898Z,100341.69
2022-08-07T14:22:01.089Z,100356.06
2022-08-07T14:25:15.799Z,100340.78
2022-08-07T14:28:19.309Z,100348.25
2022-08-07T14:31:25.263Z,100357.44
2022-08-07T14:34:48.185Z,100366.00
2022-08-07T14:38:05.814Z,100358.47
2022-08-07T14:41:15.104Z,100356.28
2022-08-07T14:44:37.434Z,100349.19
2022-08-07T14:47:41.639Z,100328.81
2022-08-07T14:50:53.232Z,100344.63
2022-08-07T14:54:10.049Z,100337.09
2022-08-07T14:57:24.542Z,100323.00
2022-08-07T15:00:31.868Z,100321.94
2022-08-07T15:03:52.150Z,100315.69
2022-08-07T15:06:56.877Z,100332.28
2022-08-07T15:10:04.679Z,100309.88
2022-08-07T15:13:25.396Z,100317.75
2022-08-07T15:16:37.264Z,100323.12
2022-08-07T15:20:33.364Z,100317.09
2022-08-07T15:25:03.055Z,100312.84
2022-08-07T15:27:06.820Z,100297.75
2022-08-07T15:30:16.652Z,100317.72
2022-08-07T15:33:21.089Z,100308.69
2022-08-07T15:37:03.110Z,100291.00
2022-08-07T15:40:01.100Z,100302.41
2022-08-07T15:43:52.826Z,100298.13
2022-08-07T15:46:51.893Z,100296.56
2022-08-07T15:50:03.687Z,100304.94
2022-08-07T15:53:13.121Z,100282.16
2022-08-07T15:56:19.621Z,100301.78
2022-08-07T15:59:39.131Z,100280.56
2022-08-07T16:02:46.675Z,100294.34
2022-08-07T16:05:51.896Z,100285.00
2022-08-07T16:08:59.726Z,100275.38
2022-08-07T16:12:28.499Z,100284.06
2022-08-07T16:16:42.984Z,100289.56
2022-08-07T16:19:58.975Z,100288.59
2022-08-07T16:23:52.917Z,100285.25
2022-08-07T16:26:59.368Z,100291.87
2022-08-07T16:30:30.459Z,100275.56
2022-08-07T16:34:02.520Z,100287.72
2022-08-07T16:38:03.535Z,100293.06
2022-08-07T16:41:20.903Z,100279.00
2022-08-07T16:45:24.596Z,100290.97
2022-08-07T16:50:28.168Z,100288.13
2022-08-07T16:52:57.326Z,100289.47
2022-08-07T16:56:13.866Z,100288.84
2022-08-07T16:59:51.205Z,100270.47
2022-08-07T17:03:04.846Z,100289.09
2022-08-07T17:06:30.413Z,100284.59
2022-08-07T17:10:08.797Z,100286.25
2022-08-07T17:13:22.705Z,100300.31
2022-08-07T17:16:55.495Z,100298.28
2022-08-07T17:20:14.071Z,100297.00
2022-08-07T17:23:39.434Z,100296.59
2022-08-07T17:27:32.733Z,100296.62
2022-08-07T17:31:15.941Z,100280.16
2022-08-07T17:34:36.753Z,100297.16
2022-08-07T17:38:11.406Z,100292.50
2022-08-07T17:42:04.863Z,100299.19
2022-08-07T17:44:58.550Z,100301.03
2022-08-07T17:48:12.813Z,100308.47
2022-08-07T17:51:23.109Z,100289.59
2022-08-07T17:54:39.899Z,100318.47
2022-08-07T17:58:04.993Z,100319.03
2022-08-07T18:01:22.019Z,100309.38
2022-08-07T18:04:35.097Z,100307.12
2022-08-07T18:07:43.842Z,100327.97
2022-08-07T18:12:07.797Z,100339.84
2022-08-07T18:14:09.559Z,100347.66
2022-08-07T18:18:46.258Z,100351.03
2022-08-07T18:21:38.336Z,100348.78
2022-08-07T18:24:37.383Z,100358.59
2022-08-07T18:28:34.078Z,100346.09
2022-08-07T18:31:52.493Z,100358.00
2022-08-07T18:35:02.023Z,100345.50
2022-08-07T18:38:57.755Z,100362.59
2022-08-07T18:42:01.802Z,100344.00
2022-08-07T18:45:44.210Z,100363.28
2022-08-07T18:50:06.046Z,100373.81
2022-08-07T18:52:52.754Z,100371.72
2022-08-07T18:56:34.151Z,100386.00
2022-08-07T19:00:00.442Z,100373.50
2022-08-07T19:03:18.359Z,100385.50
2022-08-07T19:06:33.763Z,100377.06
2022-08-07T19:09:56.830Z,100377.38
2022-08-07T19:13:25.682Z,100399.06
2022-08-07T19:17:08.154Z,100405.84
2022-08-07T19:20:29.989Z,100396.84
2022-08-07T19:23:57.485Z,100393.00
2022-08-07T19:28:29.076Z,100420.72
2022-08-07T19:31:06.249Z,100423.69
2022-08-07T19:33:59.916Z,100427.25
2022-08-07T19:37:16.812Z,100415.50
2022-08-07T19:40:30.981Z,100441.66
2022-08-07T19:43:50.224Z,100443.84
2022-08-07T19:47:05.015Z,100452.81
2022-08-07T19:50:42.963Z,100449.72
2022-08-07T19:54:33.256Z,100452.25
2022-08-07T19:57:59.946Z,100452.47
2022-08-07T20:00:28.957Z,100447.34
2022-08-07T20:03:36.262Z,100452.41
2022-08-07T20:06:43.074Z,100442.62
2022-08-07T20:10:37.932Z,100464.41
2022-08-07T20:13:23.497Z,100462.88
2022-08-07T20:16:36.344Z,100463.81
2022-08-07T20:19:48.377Z,100459.84
2022-08-07T20:23:23.446Z,100471.22
2022-08-07T20:26:45.165Z,100473.69
2022-08-07T20:30:02.094Z,100479.38
2022-08-07T20:33:19.182Z,100486.69
2022-08-07T20:36:36.492Z,100480.34
2022-08-07T20:40:02.774Z,100463.66
2022-08-07T20:43:14.807Z,100476.03
2022-08-07T20:46:34.606Z,100474.19
2022-08-07T20:49:58.116Z,100457.53
2022-08-07T20:53:04.650Z,100483.59
2022-08-07T20:56:10.513Z,100462.91
2022-08-07T21:00:04.926Z,100474.53
2022-08-07T21:02:58.601Z,100484.94
2022-08-07T21:06:21.522Z,100487.50
2022-08-07T21:09:35.431Z,100459.69
2022-08-07T21:12:58.416Z,100493.78
2022-08-07T21:16:05.181Z,100487.19
2022-08-07T21:19:13.916Z,100498.37
2022-08-07T21:22:19.335Z,100481.69
2022-08-07T21:25:56.174Z,100510.16
2022-08-07T21:29:15.881Z,100516.25
2022-08-07T21:32:50.325Z,100511.91
2022-08-07T21:36:31.282Z,100519.63
2022-08-07T21:39:56.409Z,100522.09
2022-08-07T21:43:00.178Z,100513.03
2022-08-07T21:46:25.115Z,100531.87
2022-08-07T21:50:01.297Z,100509.53
2022-08-07T21:53:08.660Z,100530.34
2022-08-07T21:56:36.498Z,100531.19
2022-08-07T22:00:05.511Z,100527.63
2022-08-07T22:03:31.011Z,100530.53
2022-08-07T22:06:49.639Z,100538.59
2022-08-07T22:09:57.156Z,100513.84
2022-08-07T22:13:12.679Z,100465.31
2022-08-07T22:16:39.616Z,100546.72
2022-08-07T22:19:57.342Z,100541.13
2022-08-07T22:23:09.738Z,100540.31
2022-08-07T22:26:28.659Z,100533.97
2022-08-07T22:29:48.436Z,100535.63
2022-08-07T22:33:05.128Z,100539.69
2022-08-07T22:36:29.252Z,100519.69
2022-08-07T22:39:52.737Z,100516.50
2022-08-07T22:43:07.209Z,100519.78
2022-08-07T22:47:02.266Z,100516.59
2022-08-07T22:50:33.318Z,100548.22
2022-08-07T22:54:08.271Z,100523.03
2022-08-07T22:57:48.256Z,100536.63
2022-08-07T23:01:01.684Z,100550.69
2022-08-07T23:04:30.660Z,100553.53
2022-08-07T23:08:24.400Z,100551.53
2022-08-07T23:11:59.146Z,100559.59
2022-08-07T23:16:04.504Z,100563.22
2022-08-07T23:19:47.658Z,100567.25
2022-08-07T23:22:59.143Z,100562.87
2022-08-07T23:26:23.581Z,100556.44
2022-08-07T23:30:39.357Z,100567.31
2022-08-07T23:34:37.944Z,100564.16
2022-08-07T23:38:19.181Z,100565.78
2022-08-07T23:42:01.731Z,100559.37
2022-08-07T23:45:05.154Z,100560.19
2022-08-07T23:48:38.136Z,100555.41
2022-08-07T23:53:06.749Z,100559.44
2022-08-07T23:55:53.045Z,100559.03
2022-08-07T23:59:10.148Z,100547.94
